createdAt,value
2018-07-30T00:02:05.583Z,20.10
2018-07-30T00:04:33.323Z,20.10
2018-07-30T00:07:02.580Z,20.10
2018-07-30T00:09:32.300Z,20.00
2018-07-30T00:12:00.058Z,19.90
2018-07-30T00:14:28.262Z,19.90
2018-07-30T00:16:56.097Z,19.90
2018-07-30T00:19:23.833Z,19.80
2018-07-30T00:21:52.064Z,19.80
2018-07-30T00:24:19.719Z,19.60
2018-07-30T00:26:47.433Z,19.60
2018-07-30T00:29:15.874Z,19.50
2018-07-30T00:31:43.576Z,19.50
2018-07-30T00:34:11.269Z,19.50
2018-07-30T00:36:39.109Z,19.50
2018-07-30T00:39:09.228Z,19.50
2018-07-30T00:41:36.914Z,19.40
2018-07-30T00:44:04.689Z,19.30
2018-07-30T00:46:34.310Z,19.30
2018-07-30T00:49:01.904Z,19.40
2018-07-30T00:51:29.741Z,19.30
2018-07-30T00:53:59.579Z,19.30
2018-07-30T00:56:27.935Z,19.20
2018-07-30T00:58:55.159Z,19.10
2018-07-30T01:01:22.256Z,19.10
2018-07-30T01:03:49.993Z,19.10
2018-07-30T01:06:17.787Z,19.00
2018-07-30T01:08:46.641Z,19.00
2018-07-30T01:11:14.395Z,19.00
2018-07-30T01:13:42.055Z,19.00
2018-07-30T01:16:09.768Z,19.00
2018-07-30T01:18:37.431Z,18.80
2018-07-30T01:21:05.281Z,18.90
2018-07-30T01:23:32.971Z,18.80
2018-07-30T01:26:06.273Z,18.80
2018-07-30T01:28:40.030Z,18.70
2018-07-30T01:31:07.949Z,18.70
2018-07-30T01:33:36.979Z,18.60
2018-07-30T01:36:05.095Z,18.60
2018-07-30T01:38:32.822Z,18.60
2018-07-30T01:41:00.521Z,18.60
2018-07-30T01:43:28.233Z,18.60
2018-07-30T01:45:55.993Z,18.60
2018-07-30T01:48:23.718Z,18.60
2018-07-30T01:50:51.551Z,18.60
2018-07-30T01:53:19.207Z,18.50
2018-07-30T01:55:46.977Z,18.60
2018-07-30T01:58:14.645Z,18.50
2018-07-30T02:00:43.475Z,18.50
2018-07-30T02:03:11.162Z,18.50
2018-07-30T02:05:41.224Z,18.50
2018-07-30T02:08:09.174Z,18.50
2018-07-30T02:10:41.242Z,18.50
2018-07-30T02:13:09.875Z,18.50
2018-07-30T02:15:37.641Z,18.50
2018-07-30T02:18:11.227Z,18.50
2018-07-30T02:20:43.000Z,18.50
2018-07-30T02:23:10.731Z,18.40
2018-07-30T02:25:39.235Z,18.40
2018-07-30T02:28:06.936Z,18.40
2018-07-30T02:30:34.690Z,18.30
2018-07-30T02:33:02.565Z,18.30
2018-07-30T02:35:30.257Z,18.30
2018-07-30T02:37:57.991Z,18.20
2018-07-30T02:40:26.740Z,18.20
2018-07-30T02:42:55.994Z,18.20
2018-07-30T02:48:05.537Z,18.20
2018-07-30T02:50:38.028Z,18.10
2018-07-30T02:53:05.779Z,18.20
2018-07-30T02:55:33.451Z,18.20
2018-07-30T02:58:01.202Z,18.20
2018-07-30T03:00:37.965Z,18.20
2018-07-30T03:03:05.665Z,18.10
2018-07-30T03:05:33.391Z,18.10
2018-07-30T03:08:01.099Z,18.10
2018-07-30T03:10:29.912Z,18.00
2018-07-30T03:13:05.967Z,18.10
2018-07-30T03:15:34.662Z,18.10
2018-07-30T03:18:02.339Z,18.10
2018-07-30T03:20:30.048Z,18.10
2018-07-30T03:22:57.790Z,18.20
2018-07-30T03:25:25.458Z,18.10
2018-07-30T03:27:53.072Z,18.20
2018-07-30T03:30:20.810Z,18.20
2018-07-30T03:32:48.672Z,18.20
2018-07-30T03:38:10.182Z,18.20
2018-07-30T03:40:37.897Z,18.30
2018-07-30T03:43:05.592Z,18.30
2018-07-30T03:45:33.261Z,18.30
2018-07-30T03:48:00.977Z,18.30
2018-07-30T03:50:28.844Z,18.40
2018-07-30T03:52:56.623Z,18.40
2018-07-30T03:55:26.145Z,18.40
2018-07-30T03:57:53.910Z,18.40
2018-07-30T04:00:25.091Z,18.40
2018-07-30T04:02:52.845Z,18.40
2018-07-30T04:05:20.637Z,18.40
2018-07-30T04:07:48.338Z,18.40
2018-07-30T04:10:16.056Z,18.40
2018-07-30T04:12:43.734Z,18.40
2018-07-30T04:15:12.473Z,18.40
2018-07-30T04:17:40.156Z,18.50
2018-07-30T04:20:08.930Z,18.50
2018-07-30T04:22:36.807Z,18.50
2018-07-30T04:25:04.670Z,18.50
2018-07-30T04:27:32.551Z,18.50
2018-07-30T04:30:00.292Z,18.60
2018-07-30T04:32:30.550Z,18.60
2018-07-30T04:34:58.352Z,18.60
2018-07-30T04:37:31.787Z,18.70
2018-07-30T04:39:59.566Z,18.70
2018-07-30T04:42:30.074Z,18.80
2018-07-30T04:44:57.889Z,18.80
2018-07-30T04:47:37.849Z,18.90
2018-07-30T04:50:05.662Z,18.90
2018-07-30T04:52:33.428Z,18.90
2018-07-30T04:55:02.439Z,18.90
2018-07-30T04:57:30.226Z,19.00
2018-07-30T04:59:57.976Z,19.10
2018-07-30T05:02:25.709Z,19.10
2018-07-30T05:04:53.399Z,19.20
2018-07-30T05:07:21.710Z,19.20
2018-07-30T05:09:55.904Z,19.30
2018-07-30T05:12:23.524Z,19.40
2018-07-30T05:14:51.428Z,19.40
2018-07-30T05:17:21.590Z,19.50
2018-07-30T05:19:49.312Z,19.60
2018-07-30T05:22:17.013Z,19.70
2018-07-30T05:24:47.212Z,19.80
2018-07-30T05:27:15.088Z,19.80
2018-07-30T05:29:47.065Z,20.00
2018-07-30T05:32:16.391Z,20.00
2018-07-30T05:35:03.575Z,20.10
2018-07-30T05:37:31.696Z,20.20
2018-07-30T05:40:00.437Z,20.30
2018-07-30T05:45:26.657Z,20.50
2018-07-30T05:47:54.394Z,20.60
2018-07-30T05:50:38.071Z,20.70
2018-07-30T05:53:07.141Z,20.80
2018-07-30T06:01:12.148Z,21.10
2018-07-30T06:03:43.053Z,21.20
2018-07-30T06:06:11.066Z,21.30
2018-07-30T06:08:39.280Z,21.40
2018-07-30T06:11:09.754Z,21.40
2018-07-30T06:13:43.962Z,21.50
2018-07-30T06:25:11.449Z,21.90
2018-07-30T06:27:41.361Z,22.00
2018-07-30T06:30:09.653Z,22.10
2018-07-30T06:32:40.011Z,22.20
2018-07-30T06:35:11.715Z,22.30
2018-07-30T06:47:10.169Z,22.70
2018-07-30T06:49:46.539Z,22.70
2018-07-30T06:52:14.456Z,22.90
2018-07-30T06:54:42.490Z,23.00
2018-07-30T06:57:13.865Z,23.10
2018-07-30T06:59:41.687Z,23.10
2018-07-30T07:02:10.106Z,23.30
2018-07-30T07:04:42.285Z,23.40
2018-07-30T07:07:10.156Z,23.40
2018-07-30T07:09:38.671Z,23.50
2018-07-30T07:12:11.431Z,23.70
2018-07-30T07:17:43.754Z,23.80
2018-07-30T07:20:14.060Z,24.00
2018-07-30T07:22:41.874Z,24.00
2018-07-30T07:25:10.699Z,24.10
2018-07-30T07:27:49.661Z,24.20
2018-07-30T07:30:17.417Z,24.30
2018-07-30T07:32:45.203Z,24.40
2018-07-30T07:35:13.142Z,24.40
2018-07-30T07:37:40.923Z,24.40
2018-07-30T07:40:09.193Z,24.50
2018-07-30T07:42:39.269Z,24.60
2018-07-30T07:45:09.986Z,24.60
2018-07-30T07:47:39.546Z,24.80
2018-07-30T07:50:09.323Z,24.80
2018-07-30T07:52:40.647Z,24.90
2018-07-30T07:55:09.779Z,25.00
2018-07-30T07:57:40.175Z,25.20
2018-07-30T08:00:11.295Z,25.20
2018-07-30T08:05:43.185Z,25.40
2018-07-30T08:08:11.324Z,25.50
2018-07-30T08:10:40.796Z,25.60
2018-07-30T08:13:10.588Z,25.70
2018-07-30T08:15:40.644Z,25.80
2018-07-30T08:18:11.773Z,25.90
2018-07-30T08:20:40.724Z,25.90
2018-07-30T08:23:08.928Z,26.00
2018-07-30T08:25:37.343Z,26.10
2018-07-30T08:28:05.285Z,26.20
2018-07-30T08:30:33.451Z,26.30
2018-07-30T08:33:01.756Z,26.40
2018-07-30T08:35:29.692Z,26.70
2018-07-30T08:37:58.907Z,26.70
2018-07-30T08:40:27.109Z,26.80
2018-07-30T08:42:56.139Z,26.80
2018-07-30T08:45:24.746Z,26.90
2018-07-30T08:47:52.882Z,27.00
2018-07-30T08:50:20.675Z,27.00
2018-07-30T08:52:48.505Z,27.10
2018-07-30T08:55:17.566Z,27.20
2018-07-30T08:57:45.328Z,27.30
2018-07-30T09:00:14.383Z,27.40
2018-07-30T09:02:42.492Z,27.50
2018-07-30T09:05:10.310Z,27.50
2018-07-30T09:07:38.526Z,27.60
2018-07-30T09:10:07.114Z,27.70
2018-07-30T09:12:35.869Z,27.80
2018-07-30T09:15:03.927Z,27.80
2018-07-30T09:17:33.255Z,27.90
2018-07-30T09:20:02.058Z,28.00
2018-07-30T09:22:38.390Z,28.10
2018-07-30T09:25:07.687Z,28.20
2018-07-30T09:27:36.422Z,28.30
2018-07-30T09:30:05.190Z,28.40
2018-07-30T09:32:33.673Z,28.60
2018-07-30T09:35:03.765Z,28.60
2018-07-30T09:37:50.580Z,28.70
2018-07-30T09:40:21.138Z,28.70
2018-07-30T09:42:52.273Z,28.80
2018-07-30T09:45:20.758Z,28.90
2018-07-30T09:47:52.832Z,28.90
2018-07-30T09:50:20.952Z,29.10
2018-07-30T09:52:49.551Z,29.20
2018-07-30T09:55:18.213Z,29.40
2018-07-30T09:58:00.324Z,29.50
2018-07-30T10:00:34.177Z,29.50
2018-07-30T10:03:02.735Z,29.70
2018-07-30T10:05:32.487Z,29.70
2018-07-30T10:08:11.611Z,29.80
2018-07-30T10:10:40.322Z,30.00
2018-07-30T10:13:10.021Z,30.10
2018-07-30T10:18:43.061Z,30.30
2018-07-30T10:21:11.153Z,30.40
2018-07-30T10:30:11.649Z,30.70
2018-07-30T11:00:05.462Z,32.00
2018-07-30T11:23:46.736Z,32.90
2018-07-30T11:26:14.701Z,33.00
2018-07-30T11:34:41.420Z,33.30
2018-07-30T11:37:10.667Z,33.70
2018-07-30T11:42:41.543Z,33.90
2018-07-30T11:45:10.564Z,33.90
2018-07-30T11:47:39.280Z,34.10
2018-07-30T11:50:09.806Z,33.70
2018-07-30T11:52:39.599Z,33.50
2018-07-30T11:55:11.288Z,33.30
2018-07-30T11:57:40.323Z,33.50
2018-07-30T12:00:09.951Z,33.80
2018-07-30T12:02:40.927Z,34.00
2018-07-30T12:05:08.840Z,34.30
2018-07-30T12:07:36.799Z,34.70
2018-07-30T12:10:04.795Z,34.90
2018-07-30T12:12:33.080Z,35.30
2018-07-30T12:15:00.818Z,35.40
2018-07-30T12:17:28.724Z,35.90
2018-07-30T12:20:06.379Z,36.20
2018-07-30T12:22:34.593Z,36.40
2018-07-30T12:28:03.592Z,37.00
2018-07-30T12:30:34.027Z,37.50
2018-07-30T12:33:03.156Z,37.70
2018-07-30T12:35:32.826Z,37.50
2018-07-30T12:38:12.360Z,37.60
2018-07-30T12:40:41.063Z,37.80
2018-07-30T12:43:09.858Z,38.30
2018-07-30T12:45:43.615Z,38.50
2018-07-30T12:48:12.745Z,38.80
2018-07-30T12:50:41.087Z,38.80
2018-07-30T12:53:28.656Z,39.10
2018-07-30T12:55:57.180Z,39.20
2018-07-30T12:58:26.816Z,38.90
2018-07-30T13:00:57.941Z,39.30
2018-07-30T13:03:26.931Z,39.30
2018-07-30T13:05:59.731Z,38.60
2018-07-30T13:08:27.954Z,37.70
2018-07-30T13:10:56.132Z,37.30
2018-07-30T13:13:23.901Z,37.60
2018-07-30T13:15:51.703Z,37.90
2018-07-30T13:18:20.659Z,38.30
2018-07-30T13:20:49.497Z,38.50
2018-07-30T13:23:17.635Z,38.80
2018-07-30T13:25:45.577Z,39.20
2018-07-30T13:28:13.559Z,38.40
2018-07-30T13:30:41.864Z,38.00
2018-07-30T13:33:09.770Z,37.90
2018-07-30T13:35:38.343Z,37.70
2018-07-30T13:38:06.675Z,38.20
2018-07-30T13:40:35.419Z,38.60
2018-07-30T13:43:03.160Z,39.00
2018-07-30T13:45:30.478Z,38.80
2018-07-30T13:47:58.441Z,38.00
2018-07-30T13:50:26.176Z,37.50
2018-07-30T13:52:53.872Z,37.60
2018-07-30T13:55:21.531Z,37.40
2018-07-30T13:57:49.439Z,37.10
2018-07-30T14:00:18.174Z,37.20
2018-07-30T14:02:51.620Z,36.80
2018-07-30T14:05:40.002Z,36.70
2018-07-30T14:08:10.076Z,36.80
2018-07-30T14:10:40.762Z,36.80
2018-07-30T14:13:08.937Z,36.60
2018-07-30T14:15:38.052Z,36.40
2018-07-30T14:18:06.575Z,36.00
2018-07-30T14:20:35.061Z,35.70
2018-07-30T14:23:06.279Z,35.50
2018-07-30T14:25:34.444Z,35.50
2018-07-30T14:28:02.164Z,35.50
2018-07-30T14:30:30.344Z,35.60
2018-07-30T14:32:58.335Z,35.40
2018-07-30T14:35:26.457Z,35.30
2018-07-30T14:37:56.519Z,35.10
2018-07-30T14:40:24.294Z,35.00
2018-07-30T14:42:52.473Z,35.00
2018-07-30T14:45:20.423Z,35.00
2018-07-30T14:47:50.019Z,35.00
2018-07-30T14:50:19.427Z,35.00
2018-07-30T14:52:47.613Z,34.90
2018-07-30T14:55:15.471Z,34.90
2018-07-30T14:57:44.845Z,34.90
2018-07-30T15:00:14.454Z,34.80
2018-07-30T15:02:42.849Z,34.80
2018-07-30T15:05:11.096Z,34.50
2018-07-30T15:07:39.040Z,34.50
2018-07-30T15:10:06.960Z,34.40
2018-07-30T15:12:35.332Z,34.50
2018-07-30T15:15:03.427Z,34.60
2018-07-30T15:17:31.491Z,34.50
2018-07-30T15:20:00.154Z,34.40
2018-07-30T15:22:29.606Z,34.40
2018-07-30T15:24:58.495Z,34.40
2018-07-30T15:27:26.538Z,34.40
2018-07-30T15:29:56.612Z,34.40
2018-07-30T15:32:25.049Z,34.40
2018-07-30T15:34:54.974Z,34.40
2018-07-30T15:37:24.001Z,34.30
2018-07-30T15:39:52.352Z,34.30
2018-07-30T15:42:22.334Z,34.20
2018-07-30T15:44:50.635Z,34.10
2018-07-30T15:47:18.625Z,34.10
2018-07-30T15:49:46.450Z,34.00
2018-07-30T15:52:15.242Z,34.00
2018-07-30T15:54:46.250Z,33.90
2018-07-30T15:57:14.439Z,33.90
2018-07-30T15:59:42.391Z,33.80
2018-07-30T16:02:10.936Z,33.70
2018-07-30T16:04:39.941Z,33.60
2018-07-30T16:07:08.040Z,33.60
2018-07-30T16:09:38.040Z,33.50
2018-07-30T16:12:05.994Z,33.50
2018-07-30T16:14:34.920Z,33.50
2018-07-30T16:17:04.811Z,33.40
2018-07-30T16:19:33.154Z,33.40
2018-07-30T16:22:03.985Z,33.30
2018-07-30T16:24:32.070Z,33.30
2018-07-30T16:27:02.720Z,33.30
2018-07-30T16:29:30.998Z,33.40
2018-07-30T16:31:59.511Z,33.40
2018-07-30T16:34:27.620Z,33.50
2018-07-30T16:36:56.469Z,33.50
2018-07-30T16:39:25.040Z,33.50
2018-07-30T16:41:53.930Z,33.50
2018-07-30T16:44:23.338Z,33.60
2018-07-30T16:46:52.051Z,33.60
2018-07-30T16:49:24.349Z,33.50
2018-07-30T16:51:52.523Z,33.50
2018-07-30T16:54:20.930Z,33.40
2018-07-30T16:56:48.986Z,33.50
2018-07-30T16:59:19.183Z,33.50
2018-07-30T17:02:02.161Z,33.40
2018-07-30T17:04:30.233Z,33.30
2018-07-30T17:06:58.793Z,33.30
2018-07-30T17:09:26.684Z,33.30
2018-07-30T17:11:55.164Z,33.20
2018-07-30T17:14:24.658Z,33.20
2018-07-30T17:16:53.110Z,33.10
2018-07-30T17:19:21.182Z,33.10
2018-07-30T17:21:49.684Z,33.00
2018-07-30T17:24:17.525Z,33.00
2018-07-30T17:26:45.327Z,33.00
2018-07-30T17:32:07.928Z,32.90
2018-07-30T17:34:35.836Z,32.90
2018-07-30T17:37:05.124Z,32.80
2018-07-30T17:39:37.303Z,32.80
2018-07-30T17:42:05.309Z,32.70
2018-07-30T17:44:33.482Z,32.60
2018-07-30T17:47:17.638Z,32.60
2018-07-30T17:49:45.799Z,32.50
2018-07-30T17:52:14.018Z,32.50
2018-07-30T17:54:42.984Z,32.50
2018-07-30T17:57:10.818Z,32.30
2018-07-30T17:59:41.659Z,32.20
2018-07-30T18:02:15.307Z,32.10
2018-07-30T18:04:43.232Z,31.90
2018-07-30T18:07:11.437Z,31.70
2018-07-30T18:09:39.699Z,31.70
2018-07-30T18:12:07.552Z,31.60
2018-07-30T18:14:35.216Z,31.50
2018-07-30T18:17:03.376Z,31.30
2018-07-30T18:19:31.065Z,31.10
2018-07-30T18:21:59.002Z,31.00
2018-07-30T18:24:26.859Z,30.90
2018-07-30T18:26:54.753Z,30.80
2018-07-30T18:29:22.728Z,30.70
2018-07-30T18:31:50.972Z,30.70
2018-07-30T18:34:18.894Z,30.50
2018-07-30T18:36:46.710Z,30.40
2018-07-30T18:39:14.725Z,30.40
2018-07-30T18:41:42.536Z,30.20
2018-07-30T18:44:10.341Z,30.10
2018-07-30T18:46:38.235Z,30.00
2018-07-30T18:49:06.004Z,30.00
2018-07-30T18:51:33.681Z,29.90
2018-07-30T18:54:05.769Z,29.80
2018-07-30T18:56:33.603Z,29.70
2018-07-30T18:59:01.316Z,29.70
2018-07-30T19:01:29.110Z,29.60
2018-07-30T19:03:57.520Z,29.40
2018-07-30T19:06:25.198Z,29.30
2018-07-30T19:08:52.869Z,29.20
2018-07-30T19:11:20.627Z,29.10
2018-07-30T19:13:48.401Z,29.00
2018-07-30T19:16:16.454Z,29.00
2018-07-30T19:18:44.243Z,29.00
2018-07-30T19:21:12.114Z,28.80
2018-07-30T19:23:40.017Z,28.70
2018-07-30T19:26:11.053Z,28.60
2018-07-30T19:28:39.030Z,28.50
2018-07-30T19:31:06.841Z,28.50
2018-07-30T19:33:35.317Z,28.40
2018-07-30T19:36:03.227Z,28.10
2018-07-30T19:38:31.255Z,27.90
2018-07-30T19:40:58.923Z,27.90
2018-07-30T19:43:26.589Z,27.90
2018-07-30T19:45:54.382Z,27.90
2018-07-30T19:48:22.215Z,27.80
2018-07-30T19:50:49.913Z,27.70
2018-07-30T19:53:21.711Z,27.50
2018-07-30T19:55:49.528Z,27.50
2018-07-30T19:58:17.623Z,27.40
2018-07-30T20:00:45.009Z,27.30
2018-07-30T20:03:12.718Z,27.20
2018-07-30T20:05:40.491Z,27.20
2018-07-30T20:08:08.099Z,27.00
2018-07-30T20:10:35.969Z,26.90
2018-07-30T20:13:03.787Z,26.80
2018-07-30T20:15:31.908Z,26.70
2018-07-30T20:17:59.999Z,26.60
2018-07-30T20:20:27.675Z,26.50
2018-07-30T20:22:58.466Z,26.50
2018-07-30T20:25:26.115Z,26.30
2018-07-30T20:27:53.848Z,26.30
2018-07-30T20:30:21.593Z,26.20
2018-07-30T20:32:49.235Z,26.20
2018-07-30T20:35:16.912Z,26.20
2018-07-30T20:37:45.335Z,26.10
2018-07-30T20:40:13.238Z,26.00
2018-07-30T20:42:41.204Z,26.00
2018-07-30T20:45:09.147Z,25.80
2018-07-30T20:47:36.838Z,25.70
2018-07-30T20:50:04.600Z,25.70
2018-07-30T20:52:32.291Z,25.60
2018-07-30T20:54:59.966Z,25.50
2018-07-30T20:57:27.618Z,25.40
2018-07-30T20:59:55.485Z,25.30
2018-07-30T21:02:23.238Z,25.30
2018-07-30T21:04:51.091Z,25.20
2018-07-30T21:07:22.582Z,25.20
2018-07-30T21:09:50.186Z,25.10
2018-07-30T21:12:18.013Z,24.90
2018-07-30T21:14:45.654Z,24.80
2018-07-30T21:17:13.421Z,24.80
2018-07-30T21:19:41.075Z,24.70
2018-07-30T21:22:08.854Z,24.70
2018-07-30T21:24:36.609Z,24.70
2018-07-30T21:27:04.396Z,24.70
2018-07-30T21:29:32.130Z,24.60
2018-07-30T21:31:59.778Z,24.50
2018-07-30T21:34:27.338Z,24.50
2018-07-30T21:36:54.880Z,24.50
2018-07-30T21:39:22.694Z,24.50
2018-07-30T21:41:50.312Z,24.40
2018-07-30T21:44:18.198Z,24.40
2018-07-30T21:46:45.822Z,24.30
2018-07-30T21:49:13.511Z,24.30
2018-07-30T21:51:42.124Z,24.10
2018-07-30T21:54:09.740Z,24.10
2018-07-30T21:56:37.373Z,23.90
2018-07-30T21:59:05.124Z,23.80
2018-07-30T22:01:32.838Z,23.70
2018-07-30T22:04:01.433Z,23.70
2018-07-30T22:06:29.132Z,23.60
2018-07-30T22:08:57.067Z,23.60
2018-07-30T22:11:28.715Z,23.60
2018-07-30T22:13:58.365Z,23.60
2018-07-30T22:16:26.119Z,23.60
2018-07-30T22:18:53.813Z,23.60
2018-07-30T22:21:21.517Z,23.60
2018-07-30T22:23:49.262Z,23.50
2018-07-30T22:26:18.218Z,23.50
2018-07-30T22:28:46.887Z,23.40
2018-07-30T22:31:15.664Z,23.30
2018-07-30T22:33:43.408Z,23.20
2018-07-30T22:36:11.095Z,23.20
2018-07-30T22:38:38.880Z,23.10
2018-07-30T22:41:06.632Z,23.10
2018-07-30T22:43:34.301Z,23.10
2018-07-30T22:46:02.059Z,23.10
2018-07-30T22:48:29.806Z,23.10
2018-07-30T22:50:57.439Z,23.00
2018-07-30T22:53:25.155Z,23.00
2018-07-30T22:55:52.876Z,22.80
2018-07-30T22:58:20.778Z,22.70
2018-07-30T23:00:48.429Z,22.70
2018-07-30T23:03:16.074Z,22.70
2018-07-30T23:05:43.850Z,22.70
2018-07-30T23:08:11.690Z,22.70
2018-07-30T23:10:40.138Z,22.60
2018-07-30T23:13:07.902Z,22.60
2018-07-30T23:15:35.696Z,22.50
2018-07-30T23:18:03.459Z,22.50
2018-07-30T23:20:31.849Z,22.30
2018-07-30T23:22:59.566Z,22.40
2018-07-30T23:25:27.257Z,22.40
2018-07-30T23:27:54.951Z,22.40
2018-07-30T23:30:23.842Z,22.40
2018-07-30T23:32:52.624Z,22.30
2018-07-30T23:35:20.223Z,22.20
2018-07-30T23:37:47.963Z,22.30
2018-07-30T23:40:17.656Z,22.20
2018-07-30T23:42:45.365Z,22.20
2018-07-30T23:45:16.646Z,22.20
2018-07-30T23:47:44.301Z,22.20
2018-07-30T23:50:12.105Z,22.20
2018-07-30T23:52:40.766Z,22.20
2018-07-30T23:55:08.550Z,22.20
2018-07-30T23:57:36.147Z,22.10
